Time;durP1;ratioP1;P1;durP2;ratioP2;P2;SDS_P1;SDS_P2;PMS_P1;PMS_P2;Temp;Humidity;BMP_temperature;BMP_pressure;BME280_temperature;BME280_humidity;BME280_pressure;Samples;Min_cycle;Max_cycle;Signal;HPM_P1;HPM_P2
2023/10/15 00:00:31;;;;;;;;;;;19.30;1.00;;;;;;4918021;29;20319;-56
2023/10/15 00:02:58;;;;;;;;;;;19.30;1.00;;;;;;4917851;29;19935;-53
2023/10/15 00:05:25;;;;;;;;;;;19.20;1.00;;;;;;4918117;29;19934;-51
2023/10/15 00:07:53;;;;;;;;;;;19.20;1.00;;;;;;4918151;29;19927;-51
2023/10/15 00:10:21;;;;;;;;;;;19.20;1.00;;;;;;4917120;29;19928;-55
2023/10/15 00:12:49;;;;;;;;;;;19.10;1.00;;;;;;4917613;29;20377;-51
2023/10/15 00:15:18;;;;;;;;;;;19.10;1.00;;;;;;4917626;29;19935;-51
2023/10/15 00:17:46;;;;;;;;;;;19.10;1.00;;;;;;4917902;29;19927;-54
2023/10/15 00:20:17;;;;;;;;;;;19.10;1.00;;;;;;4917668;29;20404;-54
2023/10/15 00:22:44;;;;;;;;;;;19.10;1.00;;;;;;4917667;29;19927;-51
2023/10/15 00:25:14;;;;;;;;;;;19.10;1.00;;;;;;4917602;29;19934;-51
2023/10/15 00:27:41;;;;;;;;;;;19.10;1.00;;;;;;4917552;29;19950;-54
2023/10/15 00:30:18;;;;;;;;;;;19.00;1.00;;;;;;4900421;29;19934;-53
2023/10/15 00:32:46;;;;;;;;;;;19.00;1.00;;;;;;4917535;29;19934;-51
2023/10/15 00:35:13;;;;;;;;;;;19.00;1.00;;;;;;4917449;29;20276;-53
2023/10/15 00:37:41;;;;;;;;;;;19.00;1.00;;;;;;4900328;29;19927;-55
2023/10/15 00:40:16;;;;;;;;;;;19.00;1.00;;;;;;4900468;29;19949;-55
2023/10/15 00:42:44;;;;;;;;;;;18.90;1.00;;;;;;4900358;29;19927;-55
2023/10/15 00:45:13;;;;;;;;;;;18.90;1.00;;;;;;4900270;29;19934;-58
2023/10/15 00:47:40;;;;;;;;;;;18.90;1.00;;;;;;4900478;29;19927;-56
2023/10/15 00:50:09;;;;;;;;;;;18.90;1.00;;;;;;4900002;29;19970;-54
2023/10/15 00:52:42;;;;;;;;;;;18.80;1.00;;;;;;4899934;29;19927;-54
2023/10/15 00:55:13;;;;;;;;;;;18.80;1.00;;;;;;4900203;29;19927;-53
2023/10/15 00:57:43;;;;;;;;;;;18.80;1.00;;;;;;4900197;29;20005;-52
2023/10/15 01:00:36;;;;;;;;;;;18.80;1.00;;;;;;4916907;29;19934;-52
2023/10/15 01:02:57;;;;;;;;;;;18.80;1.00;;;;;;4918869;29;20300;-54
2023/10/15 01:05:26;;;;;;;;;;;18.80;1.00;;;;;;4919111;29;20340;-52
2023/10/15 01:07:54;;;;;;;;;;;18.70;1.00;;;;;;4918907;29;20021;-54
2023/10/15 01:10:32;;;;;;;;;;;18.70;1.00;;;;;;4918556;29;19927;-55
2023/10/15 01:13:05;;;;;;;;;;;18.70;1.00;;;;;;4918624;29;19931;-54
2023/10/15 01:15:35;;;;;;;;;;;18.70;1.00;;;;;;4911973;29;19927;-51
2023/10/15 01:18:07;;;;;;;;;;;18.70;1.00;;;;;;4935595;29;20415;-55
2023/10/15 01:20:42;;;;;;;;;;;18.60;1.00;;;;;;4918522;29;20396;-50
2023/10/15 01:23:25;;;;;;;;;;;18.60;1.00;;;;;;4935483;29;19927;-52
2023/10/15 01:25:59;;;;;;;;;;;18.60;1.00;;;;;;4918572;29;19927;-51
2023/10/15 01:28:38;;;;;;;;;;;18.60;1.00;;;;;;4935536;29;19931;-52
2023/10/15 01:31:06;;;;;;;;;;;18.60;1.00;;;;;;4935549;29;20012;-52
2023/10/15 01:33:46;;;;;;;;;;;18.60;1.00;;;;;;4918172;29;19933;-54
2023/10/15 01:36:18;;;;;;;;;;;18.60;1.00;;;;;;4918468;29;20324;-53
2023/10/15 01:38:45;;;;;;;;;;;18.50;1.00;;;;;;4918353;29;19966;-51
2023/10/15 01:41:19;;;;;;;;;;;18.50;1.00;;;;;;4934941;29;20340;-52
2023/10/15 01:43:50;;;;;;;;;;;18.50;1.00;;;;;;4918749;29;20447;-51
2023/10/15 01:46:39;;;;;;;;;;;18.50;1.00;;;;;;4918128;29;19962;-54
2023/10/15 01:49:09;;;;;;;;;;;18.50;1.00;;;;;;4935068;29;20026;-53
2023/10/15 01:51:39;;;;;;;;;;;18.50;1.00;;;;;;4934802;29;19931;-53
2023/10/15 01:54:09;;;;;;;;;;;18.50;1.00;;;;;;4918174;29;19958;-52
2023/10/15 01:56:36;;;;;;;;;;;18.40;1.00;;;;;;4918161;29;19982;-52
2023/10/15 01:59:08;;;;;;;;;;;18.40;1.00;;;;;;4917994;29;19933;-55
2023/10/15 02:01:40;;;;;;;;;;;18.40;1.00;;;;;;4917690;29;20021;-53
2023/10/15 02:06:51;;;;;;;;;;;18.40;1.00;;;;;;4918091;29;20415;-53
2023/10/15 02:09:24;;;;;;;;;;;18.40;1.00;;;;;;4917821;29;20388;-51
2023/10/15 02:11:54;;;;;;;;;;;18.40;1.00;;;;;;4935150;29;20017;-52
2023/10/15 02:14:23;;;;;;;;;;;18.30;1.00;;;;;;4910098;29;19959;-53
2023/10/15 02:16:50;;;;;;;;;;;18.30;1.00;;;;;;4949837;29;19926;-51
2023/10/15 02:19:34;;;;;;;;;;;18.30;1.00;;;;;;4917800;29;19927;-52
2023/10/15 02:22:04;;;;;;;;;;;18.30;1.00;;;;;;4917782;29;19943;-53
2023/10/15 02:24:33;;;;;;;;;;;18.30;1.00;;;;;;4934933;29;20018;-54
2023/10/15 02:27:05;;;;;;;;;;;18.30;1.00;;;;;;4917915;29;19927;-51
2023/10/15 02:32:08;;;;;;;;;;;18.30;1.00;;;;;;4934645;29;19958;-56
2023/10/15 02:34:40;;;;;;;;;;;18.20;1.00;;;;;;4917811;29;20372;-52
2023/10/15 02:37:10;;;;;;;;;;;18.20;1.00;;;;;;4934942;29;19927;-54
2023/10/15 02:39:44;;;;;;;;;;;18.20;1.00;;;;;;4917649;29;20014;-55
2023/10/15 02:42:12;;;;;;;;;;;18.20;1.00;;;;;;4917431;29;20029;-54
2023/10/15 02:44:38;;;;;;;;;;;18.20;1.00;;;;;;4934934;29;20049;-52
2023/10/15 02:47:28;;;;;;;;;;;18.20;1.00;;;;;;4917788;29;20018;-56
2023/10/15 02:50:03;;;;;;;;;;;18.20;1.00;;;;;;4934603;29;19933;-55
2023/10/15 02:52:42;;;;;;;;;;;18.10;1.00;;;;;;4917331;29;19927;-56
2023/10/15 02:55:14;;;;;;;;;;;18.10;1.00;;;;;;4917819;29;19926;-50
2023/10/15 02:57:42;;;;;;;;;;;18.10;1.00;;;;;;4917688;29;19926;-50
2023/10/15 03:00:18;;;;;;;;;;;18.10;1.00;;;;;;4917498;29;20189;-51
2023/10/15 03:02:46;;;;;;;;;;;18.10;1.00;;;;;;4917671;29;20026;-51
2023/10/15 03:05:14;;;;;;;;;;;18.10;1.00;;;;;;4934824;29;19955;-54
2023/10/15 03:07:44;;;;;;;;;;;18.10;1.00;;;;;;4917528;29;20025;-53
2023/10/15 03:10:12;;;;;;;;;;;18.10;1.00;;;;;;4917307;29;19949;-55
2023/10/15 03:12:43;;;;;;;;;;;18.10;1.00;;;;;;4917384;29;19927;-55
2023/10/15 03:15:11;;;;;;;;;;;18.10;1.00;;;;;;4917364;29;19938;-54
2023/10/15 03:17:40;;;;;;;;;;;18.10;1.00;;;;;;4921021;29;19962;-54
2023/10/15 03:20:24;;;;;;;;;;;18.10;1.00;;;;;;4920727;29;19933;-55
2023/10/15 03:22:58;;;;;;;;;;;18.10;1.00;;;;;;4937586;29;20022;-57
2023/10/15 03:25:26;;;;;;;;;;;18.10;1.00;;;;;;4937916;29;20292;-55
2023/10/15 03:28:00;;;;;;;;;;;18.00;1.00;;;;;;4920742;29;19927;-55
2023/10/15 03:30:27;;;;;;;;;;;18.00;1.00;;;;;;4937599;29;19930;-51
2023/10/15 03:33:00;;;;;;;;;;;18.00;1.00;;;;;;4920459;29;19966;-54
2023/10/15 03:35:33;;;;;;;;;;;18.00;1.00;;;;;;4920556;29;20319;-51
2023/10/15 03:38:23;;;;;;;;;;;18.00;1.00;;;;;;4937612;29;19934;-54
2023/10/15 03:40:50;;;;;;;;;;;18.00;1.00;;;;;;4937493;29;19927;-52
2023/10/15 03:43:20;;;;;;;;;;;17.90;1.00;;;;;;4928812;29;19927;-54
2023/10/15 03:45:50;;;;;;;;;;;17.90;1.00;;;;;;4918512;29;19930;-54
2023/10/15 03:48:21;;;;;;;;;;;17.90;1.00;;;;;;4918330;29;19927;-54
2023/10/15 03:50:55;;;;;;;;;;;18.00;1.00;;;;;;4918273;29;19971;-54
2023/10/15 03:53:28;;;;;;;;;;;17.90;1.00;;;;;;4918101;29;19934;-54
2023/10/15 03:55:56;;;;;;;;;;;17.90;1.00;;;;;;4918330;29;20495;-54
2023/10/15 03:58:23;;;;;;;;;;;17.90;1.00;;;;;;4925218;29;19931;-52
2023/10/15 04:01:01;;;;;;;;;;;17.90;1.00;;;;;;4918022;29;19974;-53
2023/10/15 04:03:28;;;;;;;;;;;17.90;1.00;;;;;;4917821;29;19927;-52
2023/10/15 04:06:05;;;;;;;;;;;17.90;1.00;;;;;;4917991;29;20338;-51
2023/10/15 04:08:32;;;;;;;;;;;17.90;1.00;;;;;;4917998;29;19938;-52
2023/10/15 04:10:59;;;;;;;;;;;17.80;1.00;;;;;;4917863;29;19975;-51
2023/10/15 04:13:27;;;;;;;;;;;17.80;1.00;;;;;;4917747;29;20437;-51
2023/10/15 04:15:54;;;;;;;;;;;17.80;1.00;;;;;;4917833;29;19927;-53
2023/10/15 04:18:24;;;;;;;;;;;17.80;1.00;;;;;;4917793;29;20401;-49
2023/10/15 04:20:52;;;;;;;;;;;17.80;1.00;;;;;;4917575;29;19974;-52
2023/10/15 04:23:43;;;;;;;;;;;17.80;1.00;;;;;;4917548;29;19927;-53
2023/10/15 04:26:12;;;;;;;;;;;17.80;1.00;;;;;;4917429;29;19927;-51
2023/10/15 04:28:40;;;;;;;;;;;17.80;1.00;;;;;;4917599;29;19927;-53
2023/10/15 04:31:22;;;;;;;;;;;17.80;1.00;;;;;;4917591;29;19931;-50
2023/10/15 04:33:55;;;;;;;;;;;17.80;1.00;;;;;;4929520;29;19927;-53
2023/10/15 04:36:22;;;;;;;;;;;17.80;1.00;;;;;;4936221;29;19966;-53
2023/10/15 04:39:08;;;;;;;;;;;17.80;1.00;;;;;;4936515;29;19931;-53
2023/10/15 04:41:35;;;;;;;;;;;17.80;1.00;;;;;;4936092;29;19947;-53
2023/10/15 04:44:03;;;;;;;;;;;17.70;1.00;;;;;;4936394;29;20369;-52
2023/10/15 04:46:40;;;;;;;;;;;17.70;1.00;;;;;;4936178;29;20021;-54
2023/10/15 04:49:07;;;;;;;;;;;17.70;1.00;;;;;;4936144;29;19989;-53
2023/10/15 04:51:43;;;;;;;;;;;17.70;1.00;;;;;;4935855;29;19927;-51
2023/10/15 04:54:10;;;;;;;;;;;17.70;1.00;;;;;;4936460;29;20308;-49
2023/10/15 04:56:37;;;;;;;;;;;17.70;1.00;;;;;;4936007;29;19931;-53
2023/10/15 04:59:04;;;;;;;;;;;17.70;1.00;;;;;;4918841;29;20353;-53
2023/10/15 05:01:33;;;;;;;;;;;17.70;1.00;;;;;;4916728;29;19935;-51
2023/10/15 05:04:01;;;;;;;;;;;17.70;1.00;;;;;;4927095;29;20364;-50
2023/10/15 05:06:28;;;;;;;;;;;17.70;1.00;;;;;;4926974;29;20355;-51
2023/10/15 05:08:55;;;;;;;;;;;17.70;1.00;;;;;;4917455;29;19931;-52
2023/10/15 05:11:23;;;;;;;;;;;17.60;1.00;;;;;;4916557;29;19938;-54
2023/10/15 05:13:50;;;;;;;;;;;17.60;1.00;;;;;;4916944;29;19927;-55
2023/10/15 05:16:17;;;;;;;;;;;17.60;1.00;;;;;;4916885;29;19974;-51
2023/10/15 05:18:44;;;;;;;;;;;17.60;1.00;;;;;;4917256;29;19927;-52
2023/10/15 05:21:13;;;;;;;;;;;17.60;1.00;;;;;;4920024;29;19974;-53
2023/10/15 05:23:40;;;;;;;;;;;17.60;1.00;;;;;;4917219;29;19933;-50
2023/10/15 05:26:06;;;;;;;;;;;17.60;1.00;;;;;;4916698;29;19927;-50
2023/10/15 05:28:33;;;;;;;;;;;17.60;1.00;;;;;;4916588;29;20397;-52
2023/10/15 05:31:01;;;;;;;;;;;17.60;1.00;;;;;;4920463;29;19927;-50
2023/10/15 05:33:28;;;;;;;;;;;17.60;1.00;;;;;;4916117;29;19931;-50
2023/10/15 05:35:56;;;;;;;;;;;17.60;1.00;;;;;;4916530;29;19927;-49
2023/10/15 05:38:25;;;;;;;;;;;17.60;1.00;;;;;;4915874;29;19927;-50
2023/10/15 05:40:57;;;;;;;;;;;17.60;1.00;;;;;;4916283;29;20022;-53
2023/10/15 05:43:24;;;;;;;;;;;17.50;1.00;;;;;;4916311;29;19927;-53
2023/10/15 05:45:51;;;;;;;;;;;17.50;1.00;;;;;;4927655;29;19930;-49
2023/10/15 05:48:17;;;;;;;;;;;17.50;1.00;;;;;;4935367;29;19927;-53
2023/10/15 05:50:48;;;;;;;;;;;17.50;1.00;;;;;;4935076;29;19927;-49
2023/10/15 05:53:15;;;;;;;;;;;17.50;1.00;;;;;;4935139;29;20340;-50
2023/10/15 05:55:42;;;;;;;;;;;17.50;1.00;;;;;;4935216;29;19927;-51
2023/10/15 05:58:09;;;;;;;;;;;17.50;1.00;;;;;;4935323;29;20027;-50
2023/10/15 06:00:39;;;;;;;;;;;17.50;1.00;;;;;;4934847;29;19927;-49
2023/10/15 06:03:07;;;;;;;;;;;17.50;1.00;;;;;;4927334;29;19975;-54
2023/10/15 06:05:34;;;;;;;;;;;17.50;1.00;;;;;;4924542;29;19927;-50
2023/10/15 06:08:00;;;;;;;;;;;17.50;1.00;;;;;;4916132;29;19927;-51
2023/10/15 06:10:29;;;;;;;;;;;17.40;1.00;;;;;;4915783;29;19942;-52
2023/10/15 06:12:59;;;;;;;;;;;17.50;1.00;;;;;;4916079;29;19993;-50
2023/10/15 06:15:26;;;;;;;;;;;17.40;1.00;;;;;;4923072;29;20307;-50
2023/10/15 06:17:52;;;;;;;;;;;17.40;1.00;;;;;;4915591;29;20131;-53
2023/10/15 06:20:19;;;;;;;;;;;17.40;1.00;;;;;;4915779;29;20305;-49
2023/10/15 06:22:47;;;;;;;;;;;17.40;1.00;;;;;;4915484;29;20401;-51
2023/10/15 06:25:16;;;;;;;;;;;17.40;1.00;;;;;;4916136;29;20362;-51
2023/10/15 06:27:43;;;;;;;;;;;17.40;1.00;;;;;;4915838;29;19927;-50
2023/10/15 06:30:16;;;;;;;;;;;17.40;1.00;;;;;;4915897;29;19927;-52
2023/10/15 06:32:49;;;;;;;;;;;17.40;1.00;;;;;;4915680;29;20304;-50
2023/10/15 06:35:19;;;;;;;;;;;17.40;1.00;;;;;;4915921;29;19962;-50
2023/10/15 06:37:50;;;;;;;;;;;17.40;1.00;;;;;;4915899;29;19975;-50
2023/10/15 06:40:17;;;;;;;;;;;17.30;1.00;;;;;;4915883;29;19927;-50
2023/10/15 06:42:51;;;;;;;;;;;17.30;1.00;;;;;;4915599;29;20037;-52
2023/10/15 06:45:19;;;;;;;;;;;17.30;1.00;;;;;;4915950;29;19931;-52
2023/10/15 06:47:47;;;;;;;;;;;17.40;1.00;;;;;;4915769;29;19978;-49
2023/10/15 06:50:14;;;;;;;;;;;17.30;1.00;;;;;;4917306;29;19927;-54
2023/10/15 06:52:42;;;;;;;;;;;17.30;1.00;;;;;;4919152;29;19958;-51
2023/10/15 06:55:13;;;;;;;;;;;17.30;1.00;;;;;;4919442;29;19935;-51
2023/10/15 06:57:40;;;;;;;;;;;17.30;1.00;;;;;;4919096;29;19927;-55
2023/10/15 07:00:07;;;;;;;;;;;17.30;1.00;;;;;;4926289;29;19935;-51
2023/10/15 07:02:34;;;;;;;;;;;17.30;1.00;;;;;;4933354;29;19958;-53
2023/10/15 07:05:01;;;;;;;;;;;17.30;1.00;;;;;;4934934;29;20349;-55
2023/10/15 07:07:28;;;;;;;;;;;17.30;1.00;;;;;;4936535;29;19931;-54
2023/10/15 07:09:55;;;;;;;;;;;17.30;1.00;;;;;;4937737;29;19933;-55
2023/10/15 07:12:22;;;;;;;;;;;17.30;1.00;;;;;;4931147;29;19943;-53
2023/10/15 07:14:49;;;;;;;;;;;17.30;1.00;;;;;;4937878;29;19926;-51
2023/10/15 07:17:17;;;;;;;;;;;17.30;1.00;;;;;;4936150;29;19961;-55
2023/10/15 07:19:44;;;;;;;;;;;17.30;1.00;;;;;;4933018;29;19958;-55
2023/10/15 07:22:11;;;;;;;;;;;17.20;1.00;;;;;;4934784;29;19977;-55
2023/10/15 07:24:37;;;;;;;;;;;17.30;1.00;;;;;;4933435;29;20428;-53
2023/10/15 07:27:04;;;;;;;;;;;17.30;1.00;;;;;;4932082;29;20394;-52
2023/10/15 07:29:31;;;;;;;;;;;17.20;1.00;;;;;;4935084;29;19978;-54
2023/10/15 07:31:59;;;;;;;;;;;17.20;1.00;;;;;;4935923;29;19931;-53
2023/10/15 07:34:28;;;;;;;;;;;17.20;1.00;;;;;;4932877;29;19927;-54
2023/10/15 07:36:55;;;;;;;;;;;17.20;1.00;;;;;;4929675;29;19946;-52
2023/10/15 07:39:25;;;;;;;;;;;17.20;1.00;;;;;;4935250;29;19949;-52
2023/10/15 07:41:52;;;;;;;;;;;17.20;1.00;;;;;;4907351;29;19931;-50
2023/10/15 07:44:18;;;;;;;;;;;17.10;1.00;;;;;;4926448;29;19969;-53
2023/10/15 07:46:45;;;;;;;;;;;17.10;1.00;;;;;;4936425;29;20408;-53
2023/10/15 07:49:12;;;;;;;;;;;17.20;1.00;;;;;;4930896;29;20285;-56
2023/10/15 07:51:39;;;;;;;;;;;17.10;1.00;;;;;;4935636;29;20472;-56
2023/10/15 07:54:06;;;;;;;;;;;17.10;1.00;;;;;;4934087;29;20354;-54
2023/10/15 07:56:34;;;;;;;;;;;17.10;1.00;;;;;;4926564;29;20017;-55
2023/10/15 07:59:05;;;;;;;;;;;17.10;1.00;;;;;;4929919;29;20025;-55
2023/10/15 08:01:31;;;;;;;;;;;17.10;1.00;;;;;;4935369;29;19937;-55
2023/10/15 08:04:02;;;;;;;;;;;17.10;1.00;;;;;;4923670;29;19938;-56
2023/10/15 08:06:30;;;;;;;;;;;17.10;1.00;;;;;;4936368;29;20420;-56
2023/10/15 08:08:57;;;;;;;;;;;17.10;1.00;;;;;;4928200;29;20704;-53
2023/10/15 08:11:24;;;;;;;;;;;17.10;1.00;;;;;;4928861;29;19927;-56
2023/10/15 08:13:50;;;;;;;;;;;17.10;1.00;;;;;;4927190;29;20017;-54
2023/10/15 08:16:18;;;;;;;;;;;17.10;1.00;;;;;;4923065;29;19933;-55
2023/10/15 08:18:45;;;;;;;;;;;17.10;1.00;;;;;;4934878;29;19934;-56
2023/10/15 08:21:12;;;;;;;;;;;17.10;1.00;;;;;;4936240;29;19933;-54
2023/10/15 08:23:42;;;;;;;;;;;17.10;1.00;;;;;;4936413;29;19975;-54
2023/10/15 08:26:10;;;;;;;;;;;17.10;1.00;;;;;;4936844;29;19927;-55
2023/10/15 08:28:37;;;;;;;;;;;17.10;1.00;;;;;;4936576;29;20530;-55
2023/10/15 08:31:04;;;;;;;;;;;17.10;1.00;;;;;;4935163;29;19927;-52
2023/10/15 08:33:31;;;;;;;;;;;17.10;1.00;;;;;;4936509;29;20029;-56
2023/10/15 08:36:02;;;;;;;;;;;17.10;1.00;;;;;;4936539;29;20021;-54
2023/10/15 08:38:29;;;;;;;;;;;17.10;1.00;;;;;;4936470;29;20384;-57
2023/10/15 08:40:56;;;;;;;;;;;17.10;1.00;;;;;;4936503;29;19934;-51
2023/10/15 08:43:23;;;;;;;;;;;17.10;1.00;;;;;;4929972;29;20021;-52
2023/10/15 08:45:52;;;;;;;;;;;17.00;1.00;;;;;;4930076;29;20401;-51
2023/10/15 08:48:19;;;;;;;;;;;17.10;1.00;;;;;;4931690;29;19937;-53
2023/10/15 08:50:46;;;;;;;;;;;17.10;1.00;;;;;;4928927;29;19965;-52
2023/10/15 08:53:13;;;;;;;;;;;17.00;1.00;;;;;;4924526;29;20018;-52
2023/10/15 08:55:43;;;;;;;;;;;17.10;1.00;;;;;;4922706;29;19933;-55
2023/10/15 08:58:10;;;;;;;;;;;17.00;1.00;;;;;;4933645;29;20344;-54
2023/10/15 09:00:39;;;;;;;;;;;17.00;1.00;;;;;;4928448;29;19938;-53
2023/10/15 09:03:06;;;;;;;;;;;17.00;1.00;;;;;;4931777;29;19927;-52
2023/10/15 09:05:33;;;;;;;;;;;17.10;1.00;;;;;;4935396;29;20026;-55
2023/10/15 09:08:06;;;;;;;;;;;17.10;1.00;;;;;;4930453;29;19982;-51
2023/10/15 09:10:40;;;;;;;;;;;17.10;1.00;;;;;;4931223;29;20312;-59
2023/10/15 09:13:14;;;;;;;;;;;17.10;1.00;;;;;;4926223;29;19927;-52
2023/10/15 09:15:43;;;;;;;;;;;17.20;1.00;;;;;;4926999;29;19933;-52
2023/10/15 09:18:15;;;;;;;;;;;17.20;1.00;;;;;;4931579;29;19933;-51
2023/10/15 09:20:46;;;;;;;;;;;17.20;1.00;;;;;;4932526;29;19934;-51
2023/10/15 09:23:14;;;;;;;;;;;17.20;1.00;;;;;;4933629;29;19926;-52
2023/10/15 09:25:41;;;;;;;;;;;17.30;1.00;;;;;;4929988;29;19927;-53
2023/10/15 09:28:08;;;;;;;;;;;17.20;1.00;;;;;;4931260;29;19927;-51
2023/10/15 09:30:35;;;;;;;;;;;17.20;1.00;;;;;;4899602;29;20022;-54
2023/10/15 09:33:02;;;;;;;;;;;17.30;1.00;;;;;;4934266;29;20356;-53
2023/10/15 09:35:33;;;;;;;;;;;17.30;1.00;;;;;;4935571;29;19938;-52
2023/10/15 09:38:00;;;;;;;;;;;17.30;1.00;;;;;;4932012;29;20419;-54
2023/10/15 09:40:35;;;;;;;;;;;17.30;1.00;;;;;;4933750;29;19949;-54
2023/10/15 09:43:04;;;;;;;;;;;17.30;1.00;;;;;;4933103;29;19927;-59
2023/10/15 09:45:32;;;;;;;;;;;17.30;1.00;;;;;;4935664;29;19937;-52
2023/10/15 09:47:59;;;;;;;;;;;17.30;1.00;;;;;;4934389;29;19981;-54
2023/10/15 09:50:27;;;;;;;;;;;17.30;1.00;;;;;;4927027;29;19967;-55
2023/10/15 09:53:00;;;;;;;;;;;17.40;1.00;;;;;;4931156;29;19927;-53
2023/10/15 09:55:31;;;;;;;;;;;17.40;1.00;;;;;;4929994;29;19927;-53
2023/10/15 09:58:08;;;;;;;;;;;17.40;1.00;;;;;;4927369;29;20297;-51
2023/10/15 10:00:46;;;;;;;;;;;17.40;1.00;;;;;;4924640;29;20282;-55
2023/10/15 10:03:13;;;;;;;;;;;17.40;1.00;;;;;;4929562;29;20353;-53
2023/10/15 10:05:49;;;;;;;;;;;17.40;1.00;;;;;;4926214;29;19941;-51
2023/10/15 10:08:26;;;;;;;;;;;17.40;1.00;;;;;;4928765;29;19942;-51
2023/10/15 10:11:02;;;;;;;;;;;17.40;1.00;;;;;;4930408;29;19927;-55
2023/10/15 10:13:40;;;;;;;;;;;17.40;1.00;;;;;;4931777;29;19931;-54
2023/10/15 10:16:11;;;;;;;;;;;17.40;1.00;;;;;;4933887;29;19927;-54
2023/10/15 10:18:38;;;;;;;;;;;17.50;1.00;;;;;;4932083;29;19934;-55
2023/10/15 10:21:11;;;;;;;;;;;17.40;1.00;;;;;;4928249;29;19931;-51
2023/10/15 10:23:38;;;;;;;;;;;17.40;1.00;;;;;;4928569;29;20265;-55
2023/10/15 10:26:12;;;;;;;;;;;17.40;1.00;;;;;;4925216;29;19941;-53
2023/10/15 10:28:40;;;;;;;;;;;17.50;1.00;;;;;;4920534;29;19978;-56
2023/10/15 10:31:07;;;;;;;;;;;17.50;1.00;;;;;;4929155;29;20448;-55
2023/10/15 10:33:44;;;;;;;;;;;17.50;1.00;;;;;;4937283;29;19935;-56
2023/10/15 10:36:14;;;;;;;;;;;17.40;1.00;;;;;;4930176;29;19961;-52
2023/10/15 10:38:42;;;;;;;;;;;17.50;1.00;;;;;;4935139;29;19927;-52
2023/10/15 10:41:14;;;;;;;;;;;17.40;1.00;;;;;;4930514;29;19927;-52
2023/10/15 10:43:44;;;;;;;;;;;17.40;1.00;;;;;;4931955;29;20415;-53
2023/10/15 10:46:23;;;;;;;;;;;17.50;1.00;;;;;;4931990;29;19927;-54
2023/10/15 10:49:08;;;;;;;;;;;17.40;1.00;;;;;;4938436;29;19933;-51
2023/10/15 10:51:34;;;;;;;;;;;17.50;1.00;;;;;;4938238;29;20013;-51
2023/10/15 10:54:03;;;;;;;;;;;17.50;1.00;;;;;;4938435;29;19927;-56
2023/10/15 10:56:39;;;;;;;;;;;17.50;1.00;;;;;;4938080;29;19937;-56
2023/10/15 10:59:09;;;;;;;;;;;17.50;1.00;;;;;;4938103;29;19948;-53
2023/10/15 11:01:37;;;;;;;;;;;17.50;1.00;;;;;;4938131;29;19942;-52
2023/10/15 11:04:08;;;;;;;;;;;17.50;1.00;;;;;;4938242;29;19934;-55
2023/10/15 11:06:48;;;;;;;;;;;17.50;1.00;;;;;;4938093;29;19959;-53
2023/10/15 11:09:15;;;;;;;;;;;17.50;1.00;;;;;;4938054;29;19935;-51
2023/10/15 11:11:46;;;;;;;;;;;17.50;1.00;;;;;;4937795;29;20423;-55
2023/10/15 11:14:16;;;;;;;;;;;17.50;1.00;;;;;;4938259;29;19933;-54
2023/10/15 11:16:43;;;;;;;;;;;17.50;1.00;;;;;;4938055;29;19948;-52
2023/10/15 11:19:14;;;;;;;;;;;17.50;1.00;;;;;;4938198;29;19931;-55
2023/10/15 11:21:41;;;;;;;;;;;17.50;1.00;;;;;;4937533;29;20112;-53
2023/10/15 11:24:09;;;;;;;;;;;17.50;1.00;;;;;;4930017;29;20018;-53
2023/10/15 11:26:37;;;;;;;;;;;17.50;1.00;;;;;;4937881;29;19927;-52
2023/10/15 11:29:04;;;;;;;;;;;17.50;1.00;;;;;;4937612;29;20006;-54
2023/10/15 11:31:31;;;;;;;;;;;17.50;1.00;;;;;;4937582;29;19934;-51
2023/10/15 11:34:01;;;;;;;;;;;17.50;1.00;;;;;;4937615;29;19959;-51
2023/10/15 11:36:34;;;;;;;;;;;17.50;1.00;;;;;;4936285;29;20447;-51
2023/10/15 11:39:03;;;;;;;;;;;17.50;1.00;;;;;;4937812;29;19927;-52
2023/10/15 11:41:32;;;;;;;;;;;17.50;1.00;;;;;;4937186;29;20296;-52
2023/10/15 11:44:08;;;;;;;;;;;17.50;1.00;;;;;;4937499;29;19954;-52
2023/10/15 11:46:35;;;;;;;;;;;17.50;1.00;;;;;;4937315;29;20308;-55
2023/10/15 11:49:02;;;;;;;;;;;17.50;1.00;;;;;;4937340;29;19927;-52
2023/10/15 11:51:29;;;;;;;;;;;17.50;1.00;;;;;;4937081;29;20025;-54
2023/10/15 11:53:58;;;;;;;;;;;17.50;1.00;;;;;;4937344;29;20029;-51
2023/10/15 11:56:26;;;;;;;;;;;17.50;1.00;;;;;;4937299;29;19927;-54
2023/10/15 11:58:54;;;;;;;;;;;17.50;1.00;;;;;;4937287;29;20017;-53
2023/10/15 12:01:23;;;;;;;;;;;17.50;1.00;;;;;;4937015;29;19927;-51
2023/10/15 12:03:50;;;;;;;;;;;17.50;1.00;;;;;;4937047;29;19969;-53
2023/10/15 12:06:17;;;;;;;;;;;17.50;1.00;;;;;;4937528;29;19930;-53
2023/10/15 12:08:43;;;;;;;;;;;17.50;1.00;;;;;;4937045;29;19927;-52
2023/10/15 12:11:10;;;;;;;;;;;17.50;1.00;;;;;;4936816;29;20388;-51
2023/10/15 12:13:39;;;;;;;;;;;17.50;1.00;;;;;;4936932;29;20344;-52
2023/10/15 12:16:06;;;;;;;;;;;17.50;1.00;;;;;;4928263;29;19927;-51
2023/10/15 12:18:33;;;;;;;;;;;17.50;1.00;;;;;;4917763;29;20316;-53
2023/10/15 12:21:01;;;;;;;;;;;17.50;1.00;;;;;;4917315;29;20408;-53
2023/10/15 12:23:28;;;;;;;;;;;17.50;1.00;;;;;;4917675;29;20373;-53
2023/10/15 12:25:55;;;;;;;;;;;17.50;1.00;;;;;;4917982;29;19931;-50
2023/10/15 12:28:21;;;;;;;;;;;17.50;1.00;;;;;;4917557;29;19935;-55
2023/10/15 12:30:48;;;;;;;;;;;17.50;1.00;;;;;;4917507;29;19927;-52
2023/10/15 12:33:15;;;;;;;;;;;17.50;1.00;;;;;;4917352;29;20480;-53
2023/10/15 12:35:47;;;;;;;;;;;17.50;1.00;;;;;;4917598;29;19934;-52
2023/10/15 12:38:16;;;;;;;;;;;17.50;1.00;;;;;;4900607;29;19934;-51
2023/10/15 12:40:45;;;;;;;;;;;17.50;1.00;;;;;;4917342;29;19931;-51
2023/10/15 12:43:15;;;;;;;;;;;17.50;1.00;;;;;;4900224;29;19983;-53
2023/10/15 12:45:45;;;;;;;;;;;17.50;1.00;;;;;;4917588;29;19983;-53
2023/10/15 12:48:13;;;;;;;;;;;17.50;1.00;;;;;;4916930;29;20289;-51
2023/10/15 12:50:40;;;;;;;;;;;17.50;1.00;;;;;;4917130;29;20433;-59
2023/10/15 12:53:07;;;;;;;;;;;17.50;1.00;;;;;;4916893;29;19927;-55
2023/10/15 12:55:34;;;;;;;;;;;17.50;1.00;;;;;;4917228;29;20353;-52
2023/10/15 12:58:01;;;;;;;;;;;17.50;1.00;;;;;;4917119;29;19927;-53
2023/10/15 13:00:28;;;;;;;;;;;17.50;1.00;;;;;;4916807;29;19927;-52
2023/10/15 13:02:55;;;;;;;;;;;17.50;1.00;;;;;;4915788;29;19931;-56
2023/10/15 13:05:22;;;;;;;;;;;17.50;1.00;;;;;;4916815;29;20112;-53
2023/10/15 13:07:50;;;;;;;;;;;17.50;1.00;;;;;;4924733;29;19934;-54
2023/10/15 13:10:18;;;;;;;;;;;17.50;1.00;;;;;;4932217;29;19934;-53
2023/10/15 13:12:45;;;;;;;;;;;17.40;1.00;;;;;;4934855;29;19934;-53
2023/10/15 13:15:17;;;;;;;;;;;17.40;1.00;;;;;;4932224;29;19933;-52
2023/10/15 13:17:44;;;;;;;;;;;17.40;1.00;;;;;;4930322;29;20373;-53
2023/10/15 13:20:11;;;;;;;;;;;17.40;1.00;;;;;;4921362;29;19926;-51
2023/10/15 13:22:38;;;;;;;;;;;17.40;1.00;;;;;;4935413;29;19927;-52
2023/10/15 13:25:05;;;;;;;;;;;17.40;1.00;;;;;;4935970;29;19933;-51
2023/10/15 13:27:33;;;;;;;;;;;17.40;1.00;;;;;;4935385;29;19930;-54
2023/10/15 13:30:01;;;;;;;;;;;17.40;1.00;;;;;;4931207;29;20436;-54
2023/10/15 13:32:28;;;;;;;;;;;17.40;1.00;;;;;;4928600;29;19926;-53
2023/10/15 13:34:55;;;;;;;;;;;17.40;1.00;;;;;;4931679;29;19927;-51
2023/10/15 13:37:22;;;;;;;;;;;17.40;1.00;;;;;;4934816;29;19927;-56
2023/10/15 13:39:52;;;;;;;;;;;17.30;1.00;;;;;;4926022;29;19930;-51
2023/10/15 13:42:19;;;;;;;;;;;17.30;1.00;;;;;;4932535;29;19933;-55
2023/10/15 13:44:46;;;;;;;;;;;17.30;1.00;;;;;;4931603;29;19962;-52
2023/10/15 13:47:12;;;;;;;;;;;17.30;1.00;;;;;;4935112;29;19958;-54
2023/10/15 13:49:39;;;;;;;;;;;17.30;1.00;;;;;;4930293;29;19950;-56
2023/10/15 13:52:06;;;;;;;;;;;17.30;1.00;;;;;;4916393;29;20445;-56
2023/10/15 13:54:33;;;;;;;;;;;17.30;1.00;;;;;;4934932;29;19958;-52
2023/10/15 13:57:00;;;;;;;;;;;17.40;1.00;;;;;;4935044;29;20295;-54
2023/10/15 13:59:27;;;;;;;;;;;17.30;1.00;;;;;;4934476;29;19927;-51
2023/10/15 14:01:57;;;;;;;;;;;17.30;1.00;;;;;;4935104;29;19934;-54
2023/10/15 14:04:24;;;;;;;;;;;17.30;1.00;;;;;;4934904;29;19934;-51
2023/10/15 14:06:52;;;;;;;;;;;17.30;1.00;;;;;;4935178;29;19933;-54
2023/10/15 14:09:18;;;;;;;;;;;17.30;1.00;;;;;;4917813;29;19933;-54
2023/10/15 14:11:45;;;;;;;;;;;17.30;1.00;;;;;;4935152;29;19927;-54
2023/10/15 14:14:12;;;;;;;;;;;17.30;1.00;;;;;;4934962;29;20026;-54
2023/10/15 14:16:39;;;;;;;;;;;17.30;1.00;;;;;;4928888;29;19934;-53
2023/10/15 14:19:06;;;;;;;;;;;17.30;1.00;;;;;;4928566;29;19931;-52
2023/10/15 14:21:34;;;;;;;;;;;17.30;1.00;;;;;;4928147;29;20280;-51
2023/10/15 14:24:01;;;;;;;;;;;17.30;1.00;;;;;;4934703;29;19938;-53
2023/10/15 14:26:27;;;;;;;;;;;17.30;1.00;;;;;;4924291;29;20010;-53
2023/10/15 14:28:54;;;;;;;;;;;17.30;1.00;;;;;;4915816;29;19931;-52
2023/10/15 14:31:24;;;;;;;;;;;17.30;1.00;;;;;;4915758;29;19931;-54
2023/10/15 14:33:51;;;;;;;;;;;17.30;1.00;;;;;;4915940;29;19931;-54
2023/10/15 14:36:18;;;;;;;;;;;17.30;1.00;;;;;;4917498;29;19928;-56
2023/10/15 14:38:45;;;;;;;;;;;17.30;1.00;;;;;;4927638;29;19927;-55
2023/10/15 14:41:13;;;;;;;;;;;17.30;1.00;;;;;;4934347;29;19927;-56
2023/10/15 14:43:40;;;;;;;;;;;17.30;1.00;;;;;;4920681;29;19934;-56
2023/10/15 14:46:07;;;;;;;;;;;17.30;1.00;;;;;;4934891;29;19927;-56
2023/10/15 14:48:34;;;;;;;;;;;17.30;1.00;;;;;;4934631;29;19934;-57